createdAt,value
2018-06-13T00:01:55.968Z,96.20
2018-06-13T00:05:50.745Z,96.30
2018-06-13T00:09:44.751Z,96.30
2018-06-13T00:13:38.726Z,96.30
2018-06-13T00:17:32.651Z,96.30
2018-06-13T00:21:26.725Z,96.40
2018-06-13T00:25:21.116Z,96.20
2018-06-13T00:29:14.646Z,96.20
2018-06-13T00:33:09.389Z,96.00
2018-06-13T00:37:03.783Z,96.00
2018-06-13T00:40:57.748Z,95.70
2018-06-13T00:44:51.956Z,95.60
2018-06-13T00:48:46.195Z,95.30
2018-06-13T00:52:40.189Z,95.10
2018-06-13T00:56:34.206Z,95.00
2018-06-13T01:00:28.228Z,94.30
2018-06-13T01:04:22.294Z,94.40
2018-06-13T01:08:17.048Z,95.30
2018-06-13T01:12:11.063Z,95.60
2018-06-13T01:16:05.081Z,95.90
2018-06-13T01:19:59.195Z,95.60
2018-06-13T01:23:53.443Z,95.60
2018-06-13T01:27:47.479Z,95.80
2018-06-13T01:31:41.605Z,96.00
2018-06-13T01:35:36.023Z,96.10
2018-06-13T01:39:30.119Z,96.10
2018-06-13T01:43:24.341Z,96.20
2018-06-13T01:47:18.778Z,96.30
2018-06-13T01:51:12.900Z,96.40
2018-06-13T01:55:06.969Z,96.40
2018-06-13T01:59:01.462Z,96.50
2018-06-13T02:02:55.704Z,96.40
2018-06-13T02:06:51.371Z,96.60
2018-06-13T02:10:45.438Z,96.60
2018-06-13T02:14:40.519Z,96.60
2018-06-13T02:18:34.493Z,96.90
2018-06-13T02:22:28.567Z,96.90
2018-06-13T02:26:21.984Z,96.90
2018-06-13T02:30:15.968Z,97.00
2018-06-13T02:34:10.087Z,97.20
2018-06-13T02:38:04.069Z,97.40
2018-06-13T02:41:58.257Z,97.20
2018-06-13T02:45:52.506Z,97.50
2018-06-13T02:49:46.486Z,97.50
2018-06-13T02:53:40.923Z,97.70
2018-06-13T02:57:34.971Z,97.70
2018-06-13T03:01:29.136Z,97.80
2018-06-13T03:09:19.315Z,97.80
2018-06-13T03:13:13.317Z,97.70
2018-06-13T03:17:07.474Z,97.60
2018-06-13T03:21:01.767Z,97.60
2018-06-13T03:24:56.053Z,97.50
2018-06-13T03:28:50.043Z,97.50
2018-06-13T03:32:44.263Z,97.70
2018-06-13T03:36:38.227Z,97.40
2018-06-13T03:40:32.319Z,97.60
2018-06-13T03:44:26.286Z,97.70
2018-06-13T03:48:21.556Z,97.70
2018-06-13T03:52:15.616Z,97.60
2018-06-13T03:56:15.410Z,97.60
2018-06-13T04:00:09.419Z,97.60
2018-06-13T04:04:03.587Z,97.70
2018-06-13T04:07:58.050Z,97.60
2018-06-13T04:11:52.229Z,97.70
2018-06-13T04:15:46.162Z,97.40
2018-06-13T04:19:41.687Z,97.30
2018-06-13T04:23:36.714Z,97.40
2018-06-13T04:27:30.762Z,97.30
2018-06-13T04:31:25.361Z,97.10
2018-06-13T04:35:19.467Z,96.80
2018-06-13T04:39:13.603Z,96.40
2018-06-13T04:43:07.630Z,96.50
2018-06-13T04:47:01.620Z,96.70
2018-06-13T04:50:55.632Z,96.50
2018-06-13T04:54:49.813Z,96.40
2018-06-13T04:58:43.778Z,96.20
2018-06-13T05:02:46.634Z,96.20
2018-06-13T05:06:41.503Z,96.00
2018-06-13T05:10:35.513Z,95.50
2018-06-13T05:14:29.688Z,95.50
2018-06-13T05:18:24.077Z,95.30
2018-06-13T05:22:18.338Z,95.70
2018-06-13T05:26:12.573Z,95.50
2018-06-13T05:30:06.706Z,95.50
2018-06-13T05:34:01.022Z,95.30
2018-06-13T05:37:54.991Z,95.30
2018-06-13T05:45:42.762Z,95.00
2018-06-13T05:49:37.302Z,94.60
2018-06-13T05:53:31.526Z,94.30
2018-06-13T05:57:25.683Z,94.00
2018-06-13T06:01:19.770Z,93.80
2018-06-13T06:05:13.854Z,93.70
2018-06-13T06:09:09.007Z,92.40
2018-06-13T06:13:03.049Z,92.40
2018-06-13T06:16:57.478Z,94.60
2018-06-13T06:20:52.569Z,95.40
2018-06-13T06:24:47.134Z,94.30
2018-06-13T06:28:41.371Z,93.70
2018-06-13T06:32:35.631Z,93.60
2018-06-13T06:36:29.680Z,93.30
2018-06-13T06:40:23.708Z,92.70
2018-06-13T06:44:18.124Z,92.20
2018-06-13T06:48:13.221Z,91.70
2018-06-13T06:52:07.306Z,91.50
2018-06-13T06:56:01.267Z,91.40
2018-06-13T06:59:55.697Z,90.90
2018-06-13T07:03:49.966Z,90.30
2018-06-13T07:07:44.131Z,89.90
2018-06-13T07:11:38.288Z,90.30
2018-06-13T07:15:34.193Z,90.00
2018-06-13T07:19:29.761Z,90.00
2018-06-13T07:23:25.329Z,90.30
2018-06-13T07:27:19.506Z,90.00
2018-06-13T07:31:14.295Z,90.00
2018-06-13T07:35:09.549Z,89.00
2018-06-13T07:43:00.833Z,86.30
2018-06-13T07:46:55.132Z,85.80
2018-06-13T07:50:49.376Z,83.00
2018-06-13T07:54:43.852Z,82.70
2018-06-13T07:58:37.884Z,83.30
2018-06-13T08:02:31.928Z,78.80
2018-06-13T08:06:27.015Z,81.00
2018-06-13T08:10:22.109Z,79.30
2018-06-13T08:14:16.723Z,79.70
2018-06-13T08:18:11.437Z,80.60
2018-06-13T08:22:05.991Z,81.50
2018-06-13T08:26:00.830Z,80.90
2018-06-13T08:29:55.115Z,81.00
2018-06-13T08:33:49.472Z,82.10
2018-06-13T08:37:43.720Z,82.10
2018-06-13T08:41:37.772Z,82.80
2018-06-13T08:45:33.067Z,83.20
2018-06-13T08:49:27.334Z,83.80
2018-06-13T08:53:21.388Z,84.60
2018-06-13T08:57:15.718Z,87.80
2018-06-13T09:01:10.757Z,89.30
2018-06-13T09:05:04.821Z,89.70
2018-06-13T09:09:01.057Z,88.60
2018-06-13T09:12:55.137Z,88.30
2018-06-13T09:16:49.871Z,88.40
2018-06-13T09:20:44.116Z,86.80
2018-06-13T09:24:38.289Z,87.50
2018-06-13T09:28:33.294Z,88.30
2018-06-13T09:32:28.208Z,87.90
2018-06-13T09:36:22.391Z,87.30
2018-06-13T09:40:16.581Z,84.60
2018-06-13T09:44:10.709Z,82.00
2018-06-13T09:48:04.937Z,76.30
2018-06-13T09:51:59.162Z,72.60
2018-06-13T09:55:53.294Z,71.30
2018-06-13T09:59:53.637Z,71.70
2018-06-13T10:03:47.957Z,71.10
2018-06-13T10:07:42.058Z,72.50
2018-06-13T10:11:36.221Z,71.90
2018-06-13T10:15:30.408Z,74.00
2018-06-13T10:19:24.648Z,75.20
2018-06-13T10:23:18.840Z,77.40
2018-06-13T10:27:21.411Z,75.50
2018-06-13T10:31:15.604Z,75.70
2018-06-13T10:39:18.585Z,75.00
2018-06-13T10:43:12.660Z,75.30
2018-06-13T10:47:06.905Z,75.30
2018-06-13T10:51:03.891Z,77.40
2018-06-13T10:54:58.798Z,76.40
2018-06-13T10:58:55.811Z,73.20
2018-06-13T11:02:50.020Z,70.90
2018-06-13T11:06:45.282Z,71.50
2018-06-13T11:10:39.374Z,72.20
2018-06-13T11:14:33.914Z,69.00
2018-06-13T11:18:28.123Z,66.90
2018-06-13T11:22:23.767Z,66.10
2018-06-13T11:26:18.148Z,67.50
2018-06-13T11:30:12.602Z,65.20
2018-06-13T11:34:14.803Z,65.30
2018-06-13T11:38:20.798Z,68.10
2018-06-13T11:42:15.990Z,71.00
2018-06-13T11:46:10.889Z,74.60
2018-06-13T11:50:05.848Z,76.10
2018-06-13T11:54:00.239Z,76.60
2018-06-13T11:57:55.544Z,75.90
2018-06-13T12:01:52.849Z,72.50
2018-06-13T12:05:46.947Z,70.90
2018-06-13T12:09:40.867Z,69.00
2018-06-13T12:13:35.553Z,66.60
2018-06-13T12:17:29.682Z,65.30
2018-06-13T12:21:23.684Z,64.90
2018-06-13T12:25:17.824Z,64.20
2018-06-13T12:29:12.770Z,64.00
2018-06-13T12:33:08.194Z,65.80
2018-06-13T12:37:03.689Z,65.60
2018-06-13T12:40:57.869Z,67.60
2018-06-13T12:44:55.013Z,67.80
2018-06-13T12:48:52.787Z,68.00
2018-06-13T12:52:47.291Z,67.40
2018-06-13T12:56:42.333Z,66.20
2018-06-13T13:00:36.655Z,64.60
2018-06-13T13:04:31.446Z,62.90
2018-06-13T13:08:25.987Z,63.20
2018-06-13T13:12:21.664Z,63.20
2018-06-13T13:16:16.107Z,61.60
2018-06-13T13:20:10.325Z,61.00
2018-06-13T13:24:06.520Z,61.10
2018-06-13T13:28:01.184Z,59.60
2018-06-13T13:31:56.465Z,58.90
2018-06-13T13:35:50.864Z,58.70
2018-06-13T13:39:46.827Z,59.20
2018-06-13T13:43:41.418Z,59.30
2018-06-13T13:47:35.606Z,61.40
2018-06-13T13:51:29.904Z,61.10
2018-06-13T13:55:23.868Z,63.00
2018-06-13T13:59:18.282Z,64.30
2018-06-13T14:03:12.551Z,65.50
2018-06-13T14:07:06.802Z,61.10
2018-06-13T14:11:01.528Z,61.30
2018-06-13T14:14:55.689Z,61.80
2018-06-13T14:18:51.581Z,62.70
2018-06-13T14:22:45.700Z,62.00
2018-06-13T14:26:40.071Z,61.50
2018-06-13T14:30:34.359Z,59.40
2018-06-13T14:34:28.571Z,59.50
2018-06-13T14:38:22.641Z,55.30
2018-06-13T14:42:18.596Z,54.40
2018-06-13T14:46:12.759Z,55.20
2018-06-13T14:50:07.450Z,57.70
2018-06-13T14:54:01.870Z,58.40
2018-06-13T14:57:55.914Z,58.80
2018-06-13T15:01:51.697Z,59.30
2018-06-13T15:09:40.340Z,57.20
2018-06-13T15:13:34.380Z,54.10
2018-06-13T15:17:28.685Z,53.10
2018-06-13T15:21:23.771Z,54.20
2018-06-13T15:25:18.212Z,54.30
2018-06-13T15:29:13.861Z,53.80
2018-06-13T15:33:09.427Z,54.60
2018-06-13T15:37:03.663Z,55.80
2018-06-13T15:40:58.059Z,56.50
2018-06-13T15:44:52.069Z,57.30
2018-06-13T15:48:46.111Z,56.60
2018-06-13T15:52:40.215Z,57.50
2018-06-13T15:56:35.393Z,58.00
2018-06-13T16:00:32.237Z,57.40
2018-06-13T16:04:26.464Z,56.70
2018-06-13T16:08:20.830Z,57.10
2018-06-13T16:12:15.948Z,57.90
2018-06-13T16:16:09.950Z,57.50
2018-06-13T16:20:04.866Z,57.50
2018-06-13T16:24:00.496Z,55.80
2018-06-13T16:27:54.652Z,54.20
2018-06-13T16:31:48.871Z,54.70
2018-06-13T16:35:43.202Z,54.10
2018-06-13T16:39:40.069Z,55.00
2018-06-13T16:43:34.035Z,56.90
2018-06-13T16:47:28.384Z,58.30
2018-06-13T16:51:34.861Z,59.60
2018-06-13T16:55:29.064Z,60.20
2018-06-13T16:59:24.326Z,60.70
2018-06-13T17:03:18.795Z,61.00
2018-06-13T17:07:13.906Z,61.50
2018-06-13T17:11:09.147Z,62.60
2018-06-13T17:18:57.238Z,61.40
2018-06-13T17:22:54.777Z,62.10
2018-06-13T17:26:48.883Z,61.70
2018-06-13T17:30:43.427Z,62.10
2018-06-13T17:34:37.773Z,62.40
2018-06-13T17:38:33.288Z,62.40
2018-06-13T17:42:27.760Z,61.80
2018-06-13T17:46:21.911Z,62.00
2018-06-13T17:50:16.298Z,62.50
2018-06-13T17:54:11.156Z,63.30
2018-06-13T17:58:05.379Z,63.00
2018-06-13T18:01:59.532Z,62.80
2018-06-13T18:05:53.708Z,64.00
2018-06-13T18:09:48.072Z,63.10
2018-06-13T18:13:43.507Z,63.00
2018-06-13T18:17:38.587Z,63.00
2018-06-13T18:21:32.827Z,63.50
2018-06-13T18:25:26.919Z,63.10
2018-06-13T18:29:21.392Z,63.10
2018-06-13T18:33:15.688Z,62.30
2018-06-13T18:37:09.811Z,62.50
2018-06-13T18:41:03.999Z,62.70
2018-06-13T18:45:00.243Z,63.60
2018-06-13T18:48:54.382Z,64.30
2018-06-13T18:52:48.428Z,65.80
2018-06-13T18:56:42.456Z,66.30
2018-06-13T19:00:36.638Z,66.50
2018-06-13T19:04:30.671Z,67.40
2018-06-13T19:08:25.235Z,67.70
2018-06-13T19:12:19.237Z,68.00
2018-06-13T19:16:13.348Z,68.70
2018-06-13T19:20:07.456Z,69.10
2018-06-13T19:24:01.632Z,70.30
2018-06-13T19:27:55.677Z,71.50
2018-06-13T19:31:50.324Z,72.70
2018-06-13T19:35:44.364Z,73.90
2018-06-13T19:39:38.711Z,74.90
2018-06-13T19:43:39.791Z,76.50
2018-06-13T19:47:39.317Z,76.50
2018-06-13T19:51:34.347Z,77.60
2018-06-13T19:55:33.769Z,78.70
2018-06-13T19:59:27.894Z,79.20
2018-06-13T20:03:27.293Z,79.30
2018-06-13T20:07:21.385Z,79.90
2018-06-13T20:11:15.578Z,80.70
2018-06-13T20:15:15.363Z,81.20
2018-06-13T20:19:15.070Z,82.50
2018-06-13T20:23:09.439Z,83.50
2018-06-13T20:27:09.568Z,84.00
2018-06-13T20:31:10.514Z,85.00
2018-06-13T20:35:04.599Z,86.50
2018-06-13T20:38:58.763Z,88.20
2018-06-13T20:42:53.355Z,88.90
2018-06-13T20:46:47.514Z,89.70
2018-06-13T20:50:41.768Z,90.30
2018-06-13T20:54:35.811Z,90.80
2018-06-13T20:58:29.933Z,91.20
2018-06-13T21:02:24.239Z,90.90
2018-06-13T21:06:19.348Z,91.30
2018-06-13T21:10:13.901Z,91.70
2018-06-13T21:14:07.839Z,92.10
2018-06-13T22:28:53.067Z,94.80
2018-06-13T22:32:48.667Z,95.20
2018-06-13T22:36:42.893Z,95.30
2018-06-13T22:40:37.195Z,95.50
2018-06-13T22:44:31.815Z,95.60
2018-06-13T22:48:28.193Z,95.50
2018-06-13T22:52:22.589Z,95.50
2018-06-13T22:56:16.759Z,95.60
2018-06-13T23:00:13.422Z,95.60
2018-06-13T23:04:07.398Z,95.70
2018-06-13T23:08:01.478Z,95.90
2018-06-13T23:11:55.526Z,96.10
2018-06-13T23:15:49.970Z,96.20
2018-06-13T23:19:43.967Z,96.30
2018-06-13T23:23:37.991Z,96.20
2018-06-13T23:27:32.050Z,96.50
2018-06-13T23:35:19.942Z,96.40
2018-06-13T23:39:14.086Z,96.50
2018-06-13T23:43:08.168Z,96.80
2018-06-13T23:47:02.460Z,97.00
2018-06-13T23:50:56.525Z,97.00
2018-06-13T23:54:50.632Z,96.80
2018-06-13T23:58:45.467Z,97.00
